首页
METAR-TAF:

METAR-TAF

机场 :

长沙黄花国际机场

长沙, 中华人民共和国

纬度: 28-11N, 经度: 113-13E, 海拔: 66米

当前天气观测

该预报发布于51分钟前的20:00 UTC
风速2节,风向东北
温度 27°C
湿度 94%
气压 1002 hPa
能见度10公里或以上
1500米以下无云,无积雨云

METAR: ZGHA 192000Z 04001MPS CAVOK 27/26 Q1002 NOSIG

时间: 04:51 (20:51 UTC)

预报

该预报发布于6小时和50分钟前的14:01 UTC
预报有效从19日的 18点(UTC)到 20日的 18点(UTC)
风速8节,风向东北
能見度: 6000

TAF: ZGHA 191401Z 1918/2018 04004MPS 6000 NSC TX36/2007Z TN24/1922Z

超过4000个机场的气象观测和天气预报(METAR&TAF报告)。

可查询的气象台以黄色和红色小点在地图上表示。

将鼠标移到小点上方,可查看气象台名称。

然后点击查看天气观测和预报。

如需切换地图:点击带黑十字的绿色按钮放大地图;点击带横线的绿色按钮缩小地图;或者点击绿色箭头查看邻近地区的地图。


METAR-TAF: